createdAt,value
2023-03-28T00:04:05.367Z,978.22
2023-03-28T00:16:05.951Z,978.24
2023-03-28T00:28:06.241Z,978.37
2023-03-28T00:40:11.810Z,978.50
2023-03-28T00:52:07.144Z,978.48
2023-03-28T01:04:07.595Z,978.64
2023-03-28T01:16:08.210Z,978.79
2023-03-28T01:28:10.727Z,978.77
2023-03-28T01:40:08.940Z,978.91
2023-03-28T01:52:09.401Z,979.03
2023-03-28T02:04:20.485Z,978.98
2023-03-28T02:16:10.373Z,979.00
2023-03-28T02:28:10.772Z,979.11
2023-03-28T02:40:11.270Z,979.20
2023-03-28T02:52:11.684Z,979.39
2023-03-28T03:04:12.168Z,979.49
2023-03-28T03:16:12.653Z,979.56
2023-03-28T03:28:13.074Z,979.79
2023-03-28T03:40:13.494Z,979.88
2023-03-28T03:52:13.936Z,979.92
2023-03-28T04:04:14.430Z,980.00
2023-03-28T04:16:14.864Z,980.05
2023-03-28T04:28:15.283Z,980.06
2023-03-28T04:40:15.792Z,980.20
2023-03-28T04:52:16.156Z,980.32
2023-03-28T05:04:16.598Z,980.48
2023-03-28T05:16:17.106Z,980.59
2023-03-28T05:28:17.534Z,980.77
2023-03-28T05:40:17.997Z,980.74
2023-03-28T05:52:18.841Z,980.85
2023-03-28T06:04:18.902Z,980.74
2023-03-28T06:16:19.418Z,980.72
2023-03-28T06:28:19.811Z,980.70
2023-03-28T06:40:20.227Z,980.77
2023-03-28T06:52:20.683Z,980.80
2023-03-28T07:04:21.315Z,981.14
2023-03-28T07:16:21.627Z,981.14
2023-03-28T07:28:22.049Z,981.32
2023-03-28T07:40:22.489Z,981.72
2023-03-28T07:52:22.993Z,982.03
2023-03-28T08:04:23.427Z,981.90
2023-03-28T08:16:24.011Z,981.97
2023-03-28T08:28:24.320Z,982.20
2023-03-28T08:40:24.826Z,982.22
2023-03-28T08:52:25.235Z,982.48
2023-03-28T09:04:25.735Z,982.17
2023-03-28T09:16:26.139Z,982.36
2023-03-28T09:28:26.572Z,982.44
2023-03-28T09:40:27.017Z,982.30
2023-03-28T09:52:27.443Z,982.09
2023-03-28T10:04:27.986Z,982.24
2023-03-28T10:16:28.474Z,982.20
2023-03-28T10:28:28.842Z,982.55
2023-03-28T10:40:29.303Z,982.49
2023-03-28T10:52:29.731Z,982.53
2023-03-28T11:04:30.229Z,983.19
2023-03-28T11:16:30.645Z,984.10
2023-03-28T11:28:31.066Z,984.48
2023-03-28T11:40:31.554Z,984.06
2023-03-28T11:52:33.753Z,983.92
2023-03-28T12:04:32.568Z,983.50
2023-03-28T12:16:32.925Z,983.40
2023-03-28T12:28:33.355Z,983.83
2023-03-28T12:40:33.854Z,984.72
2023-03-28T12:52:34.281Z,984.35
2023-03-28T13:04:34.785Z,983.97
2023-03-28T13:16:35.160Z,984.13
2023-03-28T13:28:35.617Z,984.65
2023-03-28T13:40:36.094Z,984.49
2023-03-28T13:52:36.518Z,984.10
2023-03-28T14:04:36.972Z,984.24
2023-03-28T14:16:37.608Z,984.66
2023-03-28T14:28:37.948Z,984.71
2023-03-28T14:40:38.318Z,984.59
2023-03-28T14:52:38.846Z,984.91
2023-03-28T15:04:39.402Z,984.49
2023-03-28T15:16:39.703Z,984.62
2023-03-28T15:28:40.169Z,984.85
2023-03-28T15:40:40.601Z,984.71
2023-03-28T15:52:41.064Z,984.60
2023-03-28T16:04:41.501Z,984.68
2023-03-28T16:16:42.001Z,984.76
2023-03-28T16:28:42.421Z,985.02
2023-03-28T16:40:42.883Z,985.08
2023-03-28T16:52:43.378Z,985.02
2023-03-28T17:04:43.773Z,985.12
2023-03-28T17:16:44.246Z,985.35
2023-03-28T17:28:44.700Z,985.51
2023-03-28T17:40:45.099Z,985.48
2023-03-28T17:52:45.597Z,985.53
2023-03-28T18:04:46.020Z,985.69
2023-03-28T18:16:46.544Z,985.83
2023-03-28T18:28:46.951Z,985.86
2023-03-28T18:40:47.375Z,985.95
2023-03-28T18:52:47.849Z,985.86
2023-03-28T19:04:48.318Z,985.94
2023-03-28T19:16:48.838Z,986.03
2023-03-28T19:28:49.199Z,986.23
2023-03-28T19:40:49.660Z,986.39
2023-03-28T19:52:50.123Z,986.45
2023-03-28T20:04:50.583Z,986.52
2023-03-28T20:16:50.969Z,986.65
2023-03-28T20:28:51.427Z,986.61
2023-03-28T20:40:51.927Z,986.73
2023-03-28T20:52:52.324Z,986.74
2023-03-28T21:04:52.803Z,986.73
2023-03-28T21:16:53.317Z,986.80
2023-03-28T21:29:01.434Z,986.85
2023-03-28T21:40:56.868Z,986.81
2023-03-28T21:52:54.614Z,986.95
2023-03-28T22:04:56.790Z,986.87
2023-03-28T22:16:55.536Z,987.03
2023-03-28T22:28:55.946Z,987.02
2023-03-28T22:40:56.388Z,986.82
2023-03-28T22:53:01.183Z,986.59
2023-03-28T23:04:57.362Z,986.60
2023-03-28T23:28:58.255Z,986.51
2023-03-28T23:40:58.690Z,986.46
2023-03-28T23:52:59.126Z,986.51
